PWSweather.com
Personal Weather Stations
Station Observations
SBERGENWX
Wood Ridge, NJ 07075

Wood Ridge, NJ 07075

Lat: 40.851667, Lon: -74.088131

Elevation: 177

Station Type: Davis Vantage Vue

http://201weather.com/

Latest ConditionsUpdated 9:30:02 AM EDT Sunday, Jun 16, 2019
Currently Today's Max Today's Min Today's Average
Temperature 72.9°F22.7°C 74.4°F23.6°C 66.8°F19.3°C 69.6°F20.9°C
Dew Point 61.7°F16.5°C 62.6°F17.0°C 55.5°F13.1°C 59.8°F15.4°C
Winds 2.3 mph SSE3.7 kmh SSE 2.3 mph -3.7 kmh - - 1.2 mph 1.9 kmh
Wind Gusts 3.5 mph5.6 kmh 6.9 mph11.1 kmh - -
Humidity 68% 83% 52% 72%
Pressure 29.88 in1011.9 mb 29.94 in1013.9 mb 29.88 in1011.9 mb -
Precipitation - 0.02 in0.5 mm - -
Hour Temp Dew Point Humidity Winds Wind Gusts Pressure Precip Precip Rate Daily Precip Total
09:30 AM 72.9°F22.7°C 61.7°F16.5°C 68% 2.3 mph SSE3.7 kmh SSE 3.5 mph5.6 kmh 29.88 in1011.9 mb - 0.00 in0.0 mm 0.02 in0.5 mm
09:15 AM 71.7°F22.1°C 61.8°F16.6°C 71% 1.2 mph ESE1.9 kmh ESE 1.2 mph1.9 kmh 29.88 in1011.9 mb - 0.00 in0.0 mm 0.02 in0.5 mm
09:00 AM 70.4°F21.3°C 60.9°F16.1°C 72% 2.3 mph E3.7 kmh E 3.5 mph5.6 kmh 29.88 in1011.9 mb - 0.00 in0.0 mm 0.02 in0.5 mm
08:45 AM 70.2°F21.2°C 61.5°F16.4°C 74% 1.2 mph ESE1.9 kmh ESE 3.5 mph5.6 kmh 29.89 in1012.2 mb - 0.00 in0.0 mm 0.02 in0.5 mm
08:30 AM 70.2°F21.2°C 61.1°F16.2°C 73% 2.3 mph E3.7 kmh E 3.5 mph5.6 kmh 29.89 in1012.2 mb - 0.00 in0.0 mm 0.02 in0.5 mm
08:15 AM 70.4°F21.3°C 61.7°F16.5°C 74% 2.3 mph ESE3.7 kmh ESE 3.5 mph5.6 kmh 29.89 in1012.2 mb - 0.00 in0.0 mm 0.02 in0.5 mm
08:00 AM 69.8°F21.0°C 62.6°F17.0°C 78% 1.2 mph ESE1.9 kmh ESE 2.3 mph3.7 kmh 29.89 in1012.2 mb - 0.00 in0.0 mm 0.02 in0.5 mm
07:45 AM 68.9°F20.5°C 62.1°F16.7°C 79% 1.2 mph E1.9 kmh E 1.2 mph1.9 kmh 29.89 in1012.2 mb - 0.00 in0.0 mm 0.02 in0.5 mm
07:30 AM 68.5°F20.3°C 61.7°F16.5°C 79% 1.2 mph ESE1.9 kmh ESE 3.5 mph5.6 kmh 29.89 in1012.2 mb - 0.00 in0.0 mm 0.02 in0.5 mm
07:15 AM 68.1°F20.1°C 62.0°F16.7°C 81% Calm Calm 1.2 mph1.9 kmh 29.90 in1012.5 mb - 0.00 in0.0 mm 0.02 in0.5 mm
07:00 AM 67.7°F19.8°C 61.7°F16.5°C 81% 1.2 mph E1.9 kmh E 2.3 mph3.7 kmh 29.90 in1012.5 mb - 0.00 in0.0 mm 0.02 in0.5 mm
06:45 AM 67.6°F19.8°C 61.2°F16.2°C 80% 1.2 mph ESE1.9 kmh ESE 3.5 mph5.6 kmh 29.90 in1012.5 mb - 0.00 in0.0 mm 0.02 in0.5 mm
06:30 AM 67.3°F19.6°C 61.3°F16.3°C 81% 1.2 mph E1.9 kmh E 3.5 mph5.6 kmh 29.90 in1012.5 mb - 0.00 in0.0 mm 0.02 in0.5 mm
06:15 AM 66.8°F19.3°C 61.5°F16.4°C 83% 1.2 mph E1.9 kmh E 2.3 mph3.7 kmh 29.90 in1012.5 mb - 0.00 in0.0 mm 0.02 in0.5 mm
06:00 AM 66.9°F19.4°C 61.2°F16.2°C 82% 1.2 mph E1.9 kmh E 2.3 mph3.7 kmh 29.90 in1012.5 mb - 0.01 in0.3 mm 0.02 in0.5 mm
05:45 AM 67.0°F19.4°C 61.0°F16.1°C 81% 1.2 mph ESE1.9 kmh ESE 3.5 mph5.6 kmh 29.90 in1012.5 mb - 0.01 in0.3 mm 0.02 in0.5 mm
05:30 AM 67.5°F19.7°C 60.8°F16.0°C 79% 1.2 mph ESE1.9 kmh ESE 1.2 mph1.9 kmh 29.90 in1012.5 mb - 0.01 in0.3 mm 0.02 in0.5 mm
05:15 AM 67.9°F19.9°C 60.1°F15.6°C 76% Calm Calm -- 29.90 in1012.5 mb - 0.01 in0.3 mm 0.02 in0.5 mm
05:00 AM 68.3°F20.2°C 59.7°F15.4°C 74% 1.2 mph ESE1.9 kmh ESE 1.2 mph1.9 kmh 29.90 in1012.5 mb - 0.00 in0.0 mm 0.01 in0.3 mm
04:45 AM 68.2°F20.1°C 59.3°F15.2°C 73% 1.2 mph ESE1.9 kmh ESE 2.3 mph3.7 kmh 29.90 in1012.5 mb - 0.00 in0.0 mm 0.01 in0.3 mm
04:30 AM 68.2°F20.1°C 59.2°F15.1°C 73% 2.3 mph ESE3.7 kmh ESE 3.5 mph5.6 kmh 29.90 in1012.5 mb - 0.00 in0.0 mm 0.01 in0.3 mm
04:15 AM 67.9°F19.9°C 59.7°F15.4°C 75% 1.2 mph ESE1.9 kmh ESE 2.3 mph3.7 kmh 29.91 in1012.9 mb - 0.00 in0.0 mm 0.01 in0.3 mm
04:00 AM 67.9°F19.9°C 59.7°F15.4°C 75% 1.2 mph ESE1.9 kmh ESE 2.3 mph3.7 kmh 29.91 in1012.9 mb - 0.00 in0.0 mm 0.01 in0.3 mm
03:45 AM 68.2°F20.1°C 59.6°F15.3°C 74% Calm Calm 2.3 mph3.7 kmh 29.91 in1012.9 mb - 0.00 in0.0 mm 0.01 in0.3 mm
03:30 AM 68.3°F20.2°C 59.3°F15.2°C 73% 1.2 mph ESE1.9 kmh ESE 2.3 mph3.7 kmh 29.91 in1012.9 mb - 0.00 in0.0 mm 0.01 in0.3 mm
03:15 AM 68.2°F20.1°C 59.6°F15.3°C 74% 1.2 mph E1.9 kmh E 2.3 mph3.7 kmh 29.91 in1012.9 mb - 0.01 in0.3 mm 0.01 in0.3 mm
03:00 AM 68.3°F20.2°C 59.7°F15.4°C 74% 1.2 mph E1.9 kmh E 2.3 mph3.7 kmh 29.92 in1013.2 mb - 0.01 in0.3 mm 0.01 in0.3 mm
02:45 AM 68.5°F20.3°C 59.9°F15.5°C 74% Calm Calm -- 29.93 in1013.5 mb - 0.01 in0.3 mm 0.01 in0.3 mm
02:30 AM 68.7°F20.4°C 60.1°F15.6°C 74% 1.2 mph E1.9 kmh E 2.3 mph3.7 kmh 29.93 in1013.5 mb - 0.01 in0.3 mm 0.01 in0.3 mm
02:15 AM 69.0°F20.6°C 60.4°F15.8°C 74% Calm Calm 1.2 mph1.9 kmh 29.93 in1013.5 mb - 0.00 in0.0 mm 0.00 in0.0 mm
02:00 AM 70.1°F21.2°C 59.0°F15.0°C 68% Calm Calm -- 29.94 in1013.9 mb - 0.00 in0.0 mm 0.00 in0.0 mm
01:45 AM 71.1°F21.7°C 58.3°F14.6°C 64% Calm Calm 1.2 mph1.9 kmh 29.94 in1013.9 mb - 0.00 in0.0 mm 0.00 in0.0 mm
01:30 AM 71.8°F22.1°C 57.6°F14.2°C 61% 1.2 mph SE1.9 kmh SE 2.3 mph3.7 kmh 29.94 in1013.9 mb - 0.00 in0.0 mm 0.00 in0.0 mm
01:15 AM 72.9°F22.7°C 57.2°F14.0°C 58% 1.2 mph SE1.9 kmh SE 3.5 mph5.6 kmh 29.94 in1013.9 mb - 0.00 in0.0 mm 0.00 in0.0 mm
01:00 AM 73.7°F23.2°C 55.5°F13.1°C 53% 1.2 mph SE1.9 kmh SE 4.6 mph7.4 kmh 29.93 in1013.5 mb - 0.00 in0.0 mm 0.00 in0.0 mm
12:45 AM 73.9°F23.3°C 55.7°F13.2°C 53% 1.2 mph SE1.9 kmh SE 2.3 mph3.7 kmh 29.93 in1013.5 mb - 0.00 in0.0 mm 0.00 in0.0 mm
12:30 AM 74.1°F23.4°C 55.9°F13.3°C 53% 2.3 mph E3.7 kmh E 3.5 mph5.6 kmh 29.93 in1013.5 mb - 0.00 in0.0 mm 0.00 in0.0 mm
12:15 AM 74.3°F23.5°C 55.5°F13.1°C 52% 2.3 mph E3.7 kmh E 4.6 mph7.4 kmh 29.92 in1013.2 mb - 0.00 in0.0 mm 0.00 in0.0 mm
12:00 AM 74.4°F23.6°C 55.7°F13.2°C 52% 2.3 mph ESE3.7 kmh ESE 6.9 mph11.1 kmh 29.93 in1013.5 mb - 0.00 in0.0 mm 0.00 in0.0 mm